createdAt,value
2023-10-18T00:01:50.795Z,14.76
2023-10-18T00:04:23.846Z,14.62
2023-10-18T00:06:55.789Z,14.75
2023-10-18T00:09:42.270Z,14.84
2023-10-18T00:12:10.221Z,14.67
2023-10-18T00:14:40.427Z,14.40
2023-10-18T00:17:08.188Z,14.36
2023-10-18T00:19:36.320Z,14.43
2023-10-18T00:22:04.109Z,14.55
2023-10-18T00:24:32.100Z,14.73
2023-10-18T00:27:00.146Z,14.77
2023-10-18T00:29:27.882Z,14.77
2023-10-18T00:31:55.772Z,14.72
2023-10-18T00:34:23.683Z,14.87
2023-10-18T00:36:51.315Z,14.78
2023-10-18T00:39:33.907Z,14.68
2023-10-18T00:42:21.726Z,14.62
2023-10-18T00:44:59.138Z,14.63
2023-10-18T00:47:27.452Z,14.70
2023-10-18T00:49:55.272Z,14.76
2023-10-18T00:52:25.902Z,14.76
2023-10-18T00:54:54.928Z,14.73
2023-10-18T00:57:39.015Z,14.64
2023-10-18T01:00:14.124Z,14.70
2023-10-18T01:02:43.528Z,14.74
2023-10-18T01:05:17.228Z,14.61
2023-10-18T01:07:48.208Z,14.65
2023-10-18T01:10:18.375Z,14.59
2023-10-18T01:12:46.476Z,14.38
2023-10-18T01:15:20.707Z,14.07
2023-10-18T01:17:49.280Z,14.14
2023-10-18T01:20:34.908Z,14.11
2023-10-18T01:23:04.811Z,14.03
2023-10-18T01:25:32.642Z,13.95
2023-10-18T01:28:00.457Z,14.17
2023-10-18T01:30:30.540Z,14.39
2023-10-18T01:32:58.696Z,14.15
2023-10-18T01:35:26.315Z,14.09
2023-10-18T01:37:54.992Z,13.93
2023-10-18T01:40:24.290Z,14.00
2023-10-18T01:43:01.759Z,13.98
2023-10-18T01:45:38.522Z,14.06
2023-10-18T01:48:11.258Z,14.06
2023-10-18T01:50:40.688Z,14.24
2023-10-18T01:53:17.181Z,14.28
2023-10-18T01:55:58.484Z,14.33
2023-10-18T01:58:27.965Z,14.20
2023-10-18T02:00:58.376Z,14.33
2023-10-18T02:03:26.243Z,14.32
2023-10-18T02:05:54.166Z,14.42
2023-10-18T02:08:22.235Z,14.47
2023-10-18T02:10:51.663Z,14.67
2023-10-18T02:13:20.395Z,14.71
2023-10-18T02:15:49.702Z,14.70
2023-10-18T02:18:18.471Z,14.85
2023-10-18T02:20:53.145Z,14.88
2023-10-18T02:23:23.169Z,14.85
2023-10-18T02:25:51.316Z,14.82
2023-10-18T02:28:29.609Z,14.72
2023-10-18T02:30:59.478Z,14.45
2023-10-18T02:33:31.657Z,14.57
2023-10-18T02:35:59.316Z,14.63
2023-10-18T02:38:27.276Z,14.20
2023-10-18T02:40:58.116Z,13.99
2023-10-18T02:43:25.685Z,13.81
2023-10-18T02:45:53.902Z,13.80
2023-10-18T02:48:25.800Z,13.35
2023-10-18T02:50:55.381Z,13.49
2023-10-18T02:53:23.107Z,13.28
2023-10-18T02:55:59.561Z,13.75
2023-10-18T02:58:29.829Z,13.52
2023-10-18T03:01:04.351Z,13.66
2023-10-18T03:03:32.294Z,13.47
2023-10-18T03:06:07.017Z,13.60
2023-10-18T03:08:35.347Z,13.54
2023-10-18T03:11:05.277Z,13.73
2023-10-18T03:13:33.071Z,13.70
2023-10-18T03:16:07.529Z,13.72
2023-10-18T03:18:35.999Z,13.79
2023-10-18T03:21:07.108Z,13.63
2023-10-18T03:23:45.667Z,13.34
2023-10-18T03:26:13.695Z,13.33
2023-10-18T03:28:44.621Z,13.42
2023-10-18T03:31:35.376Z,13.43
2023-10-18T03:34:04.117Z,13.24
2023-10-18T03:36:46.393Z,13.40
2023-10-18T03:39:17.116Z,13.44
2023-10-18T03:41:51.406Z,13.82
2023-10-18T03:44:28.364Z,13.83
2023-10-18T03:47:06.453Z,13.59
2023-10-18T03:49:40.110Z,13.63
2023-10-18T03:52:13.711Z,13.58
2023-10-18T03:54:46.650Z,13.87
2023-10-18T03:57:17.754Z,13.97
2023-10-18T03:59:46.661Z,13.98
2023-10-18T04:02:28.570Z,14.10
2023-10-18T04:04:59.866Z,14.09
2023-10-18T04:07:28.570Z,14.16
2023-10-18T04:10:13.420Z,14.24
2023-10-18T04:12:45.280Z,14.31
2023-10-18T04:15:23.475Z,14.16
2023-10-18T04:18:04.031Z,14.04
2023-10-18T04:20:34.843Z,14.24
2023-10-18T04:23:23.235Z,14.22
2023-10-18T04:26:04.982Z,14.39
2023-10-18T04:28:44.750Z,13.97
2023-10-18T04:31:23.071Z,14.05
2023-10-18T04:33:54.201Z,13.93
2023-10-18T04:36:23.035Z,14.12
2023-10-18T04:38:52.944Z,14.20
2023-10-18T04:41:25.371Z,14.19
2023-10-18T04:44:06.783Z,13.98
2023-10-18T04:46:39.138Z,14.10
2023-10-18T04:49:10.202Z,14.13
2023-10-18T04:51:40.924Z,14.25
2023-10-18T04:54:12.861Z,14.18
2023-10-18T04:56:43.580Z,14.05
2023-10-18T04:59:20.414Z,14.12
2023-10-18T05:01:55.431Z,14.16
2023-10-18T05:04:35.465Z,13.80
2023-10-18T05:07:12.137Z,14.05
2023-10-18T05:09:43.539Z,14.21
2023-10-18T05:12:22.362Z,14.11
2023-10-18T05:15:00.879Z,14.16
2023-10-18T05:17:37.171Z,14.38
2023-10-18T05:20:20.965Z,14.25
2023-10-18T05:22:54.368Z,14.26
2023-10-18T05:25:22.169Z,14.31
2023-10-18T05:28:16.451Z,14.04
2023-10-18T05:31:03.155Z,14.29
2023-10-18T05:33:40.362Z,14.48
2023-10-18T05:36:15.605Z,14.34
2023-10-18T05:38:53.347Z,14.44
2023-10-18T05:41:30.417Z,14.51
2023-10-18T05:44:02.187Z,14.61
2023-10-18T05:46:40.232Z,14.69
2023-10-18T05:49:26.736Z,14.69
2023-10-18T05:52:16.162Z,14.71
2023-10-18T05:54:47.822Z,14.53
2023-10-18T05:57:20.972Z,14.66
2023-10-18T05:59:50.329Z,14.78
2023-10-18T06:02:25.034Z,14.81
2023-10-18T06:04:56.474Z,14.71
2023-10-18T06:07:25.617Z,14.76
2023-10-18T06:09:58.996Z,14.91
2023-10-18T06:12:31.494Z,14.75
2023-10-18T06:15:14.438Z,14.74
2023-10-18T06:17:48.813Z,14.96
2023-10-18T06:20:29.538Z,15.03
2023-10-18T06:23:18.511Z,14.92
2023-10-18T06:25:46.771Z,14.85
2023-10-18T06:28:21.576Z,15.08
2023-10-18T06:30:55.064Z,14.84
2023-10-18T06:33:23.163Z,15.00
2023-10-18T06:35:54.964Z,15.09
2023-10-18T06:38:24.783Z,15.15
2023-10-18T06:41:06.106Z,15.21
2023-10-18T06:43:34.837Z,15.18
2023-10-18T06:46:05.636Z,15.14
2023-10-18T06:48:34.948Z,15.18
2023-10-18T06:51:08.090Z,15.12
2023-10-18T06:53:39.343Z,15.08
2023-10-18T06:56:20.898Z,15.25
2023-10-18T06:58:48.923Z,15.22
2023-10-18T07:01:21.504Z,15.28
2023-10-18T07:03:50.230Z,15.19
2023-10-18T07:06:25.759Z,15.32
2023-10-18T07:08:54.291Z,15.42
2023-10-18T07:11:31.424Z,15.57
2023-10-18T07:14:14.108Z,15.57
2023-10-18T07:16:43.732Z,15.54
2023-10-18T07:19:27.934Z,15.61
2023-10-18T07:21:58.254Z,15.67
2023-10-18T07:24:46.192Z,15.74
2023-10-18T07:27:16.979Z,15.88
2023-10-18T07:29:50.188Z,15.80
2023-10-18T07:32:22.010Z,15.28
2023-10-18T07:34:49.738Z,15.35
2023-10-18T07:37:26.523Z,15.39
2023-10-18T07:40:01.449Z,15.34
2023-10-18T07:42:36.045Z,15.58
2023-10-18T07:45:05.739Z,15.67
2023-10-18T07:47:33.721Z,15.93
2023-10-18T07:50:01.679Z,15.94
2023-10-18T07:52:29.580Z,15.96
2023-10-18T07:54:57.688Z,15.80
2023-10-18T07:57:34.880Z,15.75
2023-10-18T08:00:35.859Z,15.29
2023-10-18T08:03:06.692Z,15.77
2023-10-18T08:05:47.725Z,15.76
2023-10-18T08:08:15.388Z,15.70
2023-10-18T08:10:44.346Z,15.91
2023-10-18T08:13:17.609Z,15.92
2023-10-18T08:15:52.526Z,15.78
2023-10-18T08:18:23.239Z,16.09
2023-10-18T08:20:51.094Z,16.04
2023-10-18T08:23:27.543Z,16.07
2023-10-18T08:26:07.469Z,15.97
2023-10-18T08:28:47.256Z,15.70
2023-10-18T08:31:28.283Z,15.84
2023-10-18T08:33:57.512Z,15.97
2023-10-18T08:36:31.121Z,15.88
2023-10-18T08:39:03.032Z,15.78
2023-10-18T08:41:37.978Z,15.91
2023-10-18T08:44:10.075Z,15.88
2023-10-18T08:46:42.916Z,16.23
2023-10-18T08:49:14.549Z,16.16
2023-10-18T08:51:45.686Z,16.24
2023-10-18T08:54:23.539Z,16.13
2023-10-18T08:56:53.193Z,16.48
2023-10-18T08:59:21.565Z,16.19
2023-10-18T09:02:13.128Z,16.33
2023-10-18T09:04:46.016Z,16.49
2023-10-18T09:07:44.268Z,16.21
2023-10-18T09:10:35.053Z,16.46
2023-10-18T09:13:17.394Z,16.52
2023-10-18T09:16:01.320Z,16.82
2023-10-18T09:18:36.154Z,16.88
2023-10-18T09:21:19.638Z,16.88
2023-10-18T09:23:50.320Z,17.13
2023-10-18T09:26:27.579Z,16.76
2023-10-18T09:28:57.788Z,16.86
2023-10-18T09:31:25.897Z,16.77
2023-10-18T09:33:58.065Z,16.90
2023-10-18T09:36:28.493Z,16.74
2023-10-18T09:38:58.996Z,16.66
2023-10-18T09:41:32.732Z,16.66
2023-10-18T09:44:02.739Z,17.01
2023-10-18T09:46:31.958Z,17.09
2023-10-18T09:49:01.334Z,17.31
2023-10-18T09:51:30.928Z,17.35
2023-10-18T09:53:58.994Z,16.89
2023-10-18T09:56:34.477Z,17.08
2023-10-18T09:59:09.673Z,17.19
2023-10-18T10:01:44.590Z,17.27
2023-10-18T10:04:16.316Z,17.26
2023-10-18T10:07:16.380Z,17.52
2023-10-18T10:09:47.991Z,17.43
2023-10-18T10:12:18.978Z,17.49
2023-10-18T10:14:48.861Z,17.12
2023-10-18T10:17:20.552Z,17.07
2023-10-18T10:19:53.926Z,17.51
2023-10-18T10:22:26.045Z,17.11
2023-10-18T10:25:25.619Z,17.30
2023-10-18T10:28:20.285Z,17.94
2023-10-18T10:30:48.421Z,17.96
2023-10-18T10:33:16.459Z,18.05
2023-10-18T10:35:47.983Z,17.98
2023-10-18T10:38:20.348Z,18.13
2023-10-18T10:40:50.056Z,17.72
2023-10-18T10:43:21.782Z,17.77
2023-10-18T10:45:49.803Z,17.68
2023-10-18T10:48:30.153Z,17.79
2023-10-18T10:51:34.229Z,17.47
2023-10-18T10:54:02.842Z,16.86
2023-10-18T10:56:36.522Z,16.83
2023-10-18T10:59:09.350Z,16.96
2023-10-18T11:01:41.369Z,17.53
2023-10-18T11:04:58.942Z,17.16
2023-10-18T11:07:29.419Z,16.95
2023-10-18T11:10:07.963Z,17.45
2023-10-18T11:12:35.935Z,17.70
2023-10-18T11:15:05.716Z,17.61
2023-10-18T11:17:37.279Z,17.49
2023-10-18T11:20:19.485Z,17.48
2023-10-18T11:22:49.222Z,17.46
2023-10-18T11:25:24.250Z,17.54
2023-10-18T11:27:52.233Z,17.23
2023-10-18T11:30:22.652Z,16.50
2023-10-18T11:32:52.516Z,16.01
2023-10-18T11:35:47.409Z,15.91
2023-10-18T11:38:21.045Z,15.89
2023-10-18T11:40:52.098Z,16.01
2023-10-18T11:43:29.197Z,16.17
2023-10-18T11:46:08.122Z,15.88
2023-10-18T11:48:37.441Z,16.09
2023-10-18T11:51:07.596Z,16.23
2023-10-18T11:53:36.610Z,16.16
2023-10-18T11:56:13.069Z,16.16
2023-10-18T11:59:00.509Z,16.35
2023-10-18T12:01:34.109Z,15.75
2023-10-18T12:04:02.261Z,15.93
2023-10-18T12:06:30.231Z,16.14
2023-10-18T12:09:13.405Z,16.34
2023-10-18T12:11:42.542Z,16.63
2023-10-18T12:14:10.201Z,16.45
2023-10-18T12:16:39.246Z,16.52
2023-10-18T12:19:08.508Z,16.69
2023-10-18T12:21:36.261Z,16.63
2023-10-18T12:24:11.663Z,16.99
2023-10-18T12:26:41.318Z,17.28
2023-10-18T12:29:16.890Z,16.68
2023-10-18T12:31:54.067Z,16.07
2023-10-18T12:34:30.229Z,16.46
2023-10-18T12:36:59.714Z,16.57
2023-10-18T12:39:27.574Z,16.42
2023-10-18T12:41:56.635Z,16.22
2023-10-18T12:44:26.770Z,16.14
2023-10-18T12:46:57.439Z,16.40
2023-10-18T12:49:25.281Z,16.30
2023-10-18T12:51:59.867Z,16.30
2023-10-18T12:54:37.968Z,16.55
2023-10-18T12:57:15.444Z,16.59
2023-10-18T13:00:09.506Z,16.63
2023-10-18T13:03:12.148Z,16.39
2023-10-18T13:05:44.970Z,16.32
2023-10-18T13:08:24.219Z,16.57
2023-10-18T13:11:11.031Z,16.52
2023-10-18T13:13:39.496Z,16.57
2023-10-18T13:16:14.778Z,16.41
2023-10-18T13:18:43.302Z,16.53
2023-10-18T13:21:13.132Z,16.64
2023-10-18T13:23:47.425Z,16.64
2023-10-18T13:26:21.797Z,16.61
2023-10-18T13:28:52.858Z,16.32
2023-10-18T13:31:24.234Z,16.30
2023-10-18T13:33:53.863Z,16.09
2023-10-18T13:36:23.173Z,15.76
2023-10-18T13:38:52.503Z,16.02
2023-10-18T13:41:20.597Z,15.67
2023-10-18T13:43:48.909Z,15.72
2023-10-18T13:46:24.628Z,15.85
2023-10-18T13:48:52.569Z,15.85
2023-10-18T13:51:21.106Z,15.71
2023-10-18T13:53:49.896Z,15.69
2023-10-18T13:56:19.442Z,15.58
2023-10-18T13:58:48.039Z,15.56
2023-10-18T14:01:20.221Z,15.75
2023-10-18T14:03:51.037Z,15.76
2023-10-18T14:06:20.216Z,15.57
2023-10-18T14:08:48.757Z,15.62
2023-10-18T14:11:19.123Z,15.55
2023-10-18T14:13:49.624Z,15.60
2023-10-18T14:16:20.299Z,15.44
2023-10-18T14:18:49.793Z,15.64
2023-10-18T14:21:17.478Z,14.82
2023-10-18T14:23:49.013Z,14.26
2023-10-18T14:26:18.596Z,14.75
2023-10-18T14:28:46.664Z,14.52
2023-10-18T14:31:16.419Z,14.90
2023-10-18T14:33:57.477Z,14.55
2023-10-18T14:36:33.850Z,14.88
2023-10-18T14:39:04.834Z,14.75
2023-10-18T14:41:33.952Z,14.86
2023-10-18T14:44:02.652Z,14.64
2023-10-18T14:46:32.294Z,14.62
2023-10-18T14:49:01.757Z,14.73
2023-10-18T14:51:30.378Z,14.74
2023-10-18T14:53:58.692Z,14.89
2023-10-18T14:56:26.481Z,14.74
2023-10-18T14:58:59.050Z,14.82
2023-10-18T15:01:27.043Z,14.94
2023-10-18T15:03:54.942Z,14.81
2023-10-18T15:06:25.598Z,14.50
2023-10-18T15:08:56.463Z,14.73
2023-10-18T15:11:24.376Z,14.73
2023-10-18T15:13:52.059Z,14.70
2023-10-18T15:16:20.456Z,14.80
2023-10-18T15:18:49.372Z,14.76
2023-10-18T15:21:18.797Z,14.62
2023-10-18T15:23:47.026Z,14.72
2023-10-18T15:26:18.267Z,14.60
2023-10-18T15:28:51.264Z,14.74
2023-10-18T15:31:19.787Z,14.70
2023-10-18T15:33:47.836Z,14.70
2023-10-18T15:36:25.123Z,14.57
2023-10-18T15:38:58.052Z,14.40
2023-10-18T15:41:27.190Z,14.62
2023-10-18T15:44:01.358Z,14.52
2023-10-18T15:46:34.831Z,14.52
2023-10-18T15:49:03.193Z,14.49
2023-10-18T15:51:33.210Z,14.50
2023-10-18T15:54:04.236Z,14.29
2023-10-18T15:56:34.777Z,14.21
2023-10-18T15:59:05.174Z,14.30
2023-10-18T16:01:46.591Z,14.34
2023-10-18T16:04:20.760Z,14.27
2023-10-18T16:06:50.552Z,14.38
2023-10-18T16:09:19.300Z,14.33
2023-10-18T16:11:47.221Z,14.37
2023-10-18T16:14:15.200Z,14.44
2023-10-18T16:16:43.277Z,14.52
2023-10-18T16:19:12.086Z,14.02
2023-10-18T16:21:43.219Z,14.30
2023-10-18T16:24:11.276Z,14.36
2023-10-18T16:26:38.950Z,14.18
2023-10-18T16:29:07.822Z,13.48
2023-10-18T16:31:37.265Z,13.71
2023-10-18T16:34:06.895Z,13.57
2023-10-18T16:36:39.227Z,13.46
2023-10-18T16:39:06.973Z,13.51
2023-10-18T16:41:34.989Z,13.33
2023-10-18T16:44:03.048Z,12.98
2023-10-18T16:46:31.954Z,13.31
2023-10-18T16:49:00.776Z,13.19
2023-10-18T16:51:29.385Z,13.23
2023-10-18T16:53:57.302Z,13.51
2023-10-18T16:56:26.992Z,13.06
2023-10-18T16:58:58.206Z,13.31
2023-10-18T17:01:26.543Z,12.95
2023-10-18T17:03:54.303Z,13.17
2023-10-18T17:06:22.803Z,13.21
2023-10-18T17:08:50.548Z,13.19
2023-10-18T17:11:19.634Z,13.29
2023-10-18T17:13:49.216Z,13.37
2023-10-18T17:16:18.846Z,13.25
2023-10-18T17:18:46.964Z,13.16
2023-10-18T17:21:20.141Z,13.19
2023-10-18T17:23:48.758Z,13.16
2023-10-18T17:26:18.678Z,12.99
2023-10-18T17:28:50.534Z,13.15
2023-10-18T17:31:21.424Z,12.90
2023-10-18T17:33:51.033Z,12.90
2023-10-18T17:36:20.037Z,12.86
2023-10-18T17:38:48.434Z,13.01
2023-10-18T17:41:16.218Z,13.04
2023-10-18T17:43:44.462Z,13.06
2023-10-18T17:46:15.377Z,13.34
2023-10-18T17:48:44.017Z,13.24
2023-10-18T17:51:11.740Z,12.87
2023-10-18T17:53:39.839Z,13.08
2023-10-18T17:56:13.259Z,13.10
2023-10-18T17:58:42.915Z,13.24
2023-10-18T18:01:22.270Z,13.10
2023-10-18T18:03:53.708Z,13.29
2023-10-18T18:06:22.118Z,13.41
2023-10-18T18:08:50.717Z,13.20
2023-10-18T18:11:26.716Z,13.02
2023-10-18T18:13:54.750Z,12.85
2023-10-18T18:16:22.824Z,12.75
2023-10-18T18:18:52.798Z,12.87
2023-10-18T18:21:22.828Z,12.76
2023-10-18T18:23:53.467Z,12.75
2023-10-18T18:26:23.862Z,12.62
2023-10-18T18:28:52.237Z,12.66
2023-10-18T18:31:20.527Z,12.42
2023-10-18T18:33:50.703Z,12.62
2023-10-18T18:36:18.274Z,12.59
2023-10-18T18:38:45.910Z,12.65
2023-10-18T18:41:15.767Z,12.55
2023-10-18T18:43:43.889Z,12.77
2023-10-18T18:46:17.991Z,12.49
2023-10-18T18:48:52.256Z,12.52
2023-10-18T18:51:19.844Z,12.42
2023-10-18T18:53:47.574Z,12.34
2023-10-18T18:56:15.229Z,12.73
2023-10-18T18:58:42.959Z,12.77
2023-10-18T19:01:11.478Z,12.76
2023-10-18T19:03:39.195Z,12.76
2023-10-18T19:06:07.744Z,12.66
2023-10-18T19:08:35.281Z,12.54
2023-10-18T19:11:03.049Z,12.86
2023-10-18T19:13:30.794Z,13.00
2023-10-18T19:16:08.424Z,12.96
2023-10-18T19:18:36.581Z,13.00
2023-10-18T19:21:12.197Z,12.49
2023-10-18T19:23:40.082Z,12.69
2023-10-18T19:26:18.158Z,12.66
2023-10-18T19:28:47.775Z,12.53
2023-10-18T19:31:18.140Z,12.34
2023-10-18T19:33:48.057Z,12.74
2023-10-18T19:36:21.255Z,12.52
2023-10-18T19:38:50.154Z,12.70
2023-10-18T19:41:21.391Z,12.58
2023-10-18T19:43:50.593Z,12.60
2023-10-18T19:46:18.719Z,12.48
2023-10-18T19:48:48.843Z,12.64
2023-10-18T19:51:17.901Z,12.45
2023-10-18T19:53:46.457Z,12.63
2023-10-18T19:56:16.474Z,13.13
2023-10-18T19:58:45.351Z,13.01
2023-10-18T20:01:14.336Z,13.15
2023-10-18T20:03:43.082Z,13.18
2023-10-18T20:06:11.911Z,13.11
2023-10-18T20:08:41.670Z,13.45
2023-10-18T20:11:12.015Z,13.38
2023-10-18T20:13:40.971Z,13.31
2023-10-18T20:16:14.141Z,13.41
2023-10-18T20:18:43.568Z,13.28
2023-10-18T20:21:14.904Z,13.20
2023-10-18T20:23:43.116Z,13.37
2023-10-18T20:26:16.785Z,13.51
2023-10-18T20:28:44.970Z,13.27
2023-10-18T20:31:13.306Z,13.31
2023-10-18T20:33:41.718Z,13.39
2023-10-18T20:36:09.707Z,13.27
2023-10-18T20:38:38.175Z,13.15
2023-10-18T20:41:05.924Z,13.11
2023-10-18T20:43:37.269Z,13.47
2023-10-18T20:46:19.158Z,13.50
2023-10-18T20:48:50.859Z,13.58
2023-10-18T20:51:20.056Z,13.52
2023-10-18T20:56:23.383Z,13.62
2023-10-18T20:58:56.711Z,13.16
2023-10-18T21:01:36.031Z,13.11
2023-10-18T21:04:07.461Z,12.58
2023-10-18T21:06:39.903Z,12.45
2023-10-18T21:09:14.049Z,12.76
2023-10-18T21:11:45.285Z,12.78
2023-10-18T21:14:16.816Z,12.87
2023-10-18T21:16:46.455Z,12.68
2023-10-18T21:19:15.115Z,12.84
2023-10-18T21:21:43.334Z,13.13
2023-10-18T21:24:12.578Z,12.94
2023-10-18T21:26:41.452Z,12.78
2023-10-18T21:29:10.031Z,12.80
2023-10-18T21:31:38.878Z,12.77
2023-10-18T21:34:06.682Z,12.80
2023-10-18T21:36:37.548Z,12.80
2023-10-18T21:39:07.746Z,12.89
2023-10-18T21:41:36.372Z,12.69
2023-10-18T21:44:05.730Z,12.58
2023-10-18T21:46:36.915Z,12.53
2023-10-18T21:49:04.773Z,13.08
2023-10-18T21:51:32.712Z,12.96
2023-10-18T21:54:00.928Z,13.00
2023-10-18T21:56:29.338Z,13.01
2023-10-18T21:58:57.914Z,13.16
2023-10-18T22:01:40.795Z,13.20
2023-10-18T22:04:09.757Z,13.33
2023-10-18T22:06:40.524Z,13.30
2023-10-18T22:09:27.706Z,13.04
2023-10-18T22:11:55.604Z,13.47
2023-10-18T22:14:27.163Z,13.51
2023-10-18T22:16:56.045Z,13.67
2023-10-18T22:19:31.896Z,13.50
2023-10-18T22:22:13.534Z,13.49
2023-10-18T22:24:48.438Z,13.15
2023-10-18T22:27:27.722Z,13.36
2023-10-18T22:29:55.844Z,13.23
2023-10-18T22:32:34.710Z,13.04
2023-10-18T22:35:10.802Z,12.81
2023-10-18T22:37:43.436Z,12.57
2023-10-18T22:40:18.644Z,12.56
2023-10-18T22:42:51.005Z,12.83
2023-10-18T22:45:26.792Z,12.97
2023-10-18T22:48:08.237Z,12.95
2023-10-18T22:50:37.226Z,12.77
2023-10-18T22:53:18.604Z,12.90
2023-10-18T22:56:00.289Z,13.08
2023-10-18T22:58:33.123Z,13.03
2023-10-18T23:01:03.221Z,12.94
2023-10-18T23:03:33.896Z,12.94
2023-10-18T23:06:03.717Z,13.32
2023-10-18T23:08:38.457Z,13.47
2023-10-18T23:11:27.333Z,13.63
2023-10-18T23:13:56.728Z,13.80
2023-10-18T23:16:42.048Z,13.05
2023-10-18T23:19:31.242Z,12.97
2023-10-18T23:22:16.341Z,13.19
2023-10-18T23:24:49.342Z,12.93
2023-10-18T23:27:38.423Z,13.08
2023-10-18T23:30:32.900Z,13.25
2023-10-18T23:33:03.364Z,13.42
2023-10-18T23:35:47.085Z,13.65
2023-10-18T23:38:33.487Z,13.66
2023-10-18T23:41:12.108Z,13.71
2023-10-18T23:43:54.047Z,13.60
2023-10-18T23:46:49.115Z,13.54
2023-10-18T23:49:27.963Z,13.35
2023-10-18T23:51:57.267Z,13.06
2023-10-18T23:54:31.595Z,13.20
2023-10-18T23:57:11.945Z,13.04
2023-10-18T23:59:41.102Z,12.94
